createdAt,value
2022-11-04T00:02:15.000Z,101088.13
2022-11-04T00:04:42.808Z,101084.41
2022-11-04T00:07:30.651Z,101098.59
2022-11-04T00:09:58.276Z,101095.91
2022-11-04T00:12:26.927Z,101086.13
2022-11-04T00:15:15.099Z,101086.78
2022-11-04T00:17:42.662Z,101085.31
2022-11-04T00:20:29.336Z,101084.28
2022-11-04T00:23:15.873Z,101083.25
2022-11-04T00:26:01.829Z,101090.31
2022-11-04T00:28:44.914Z,101079.75
2022-11-04T00:31:30.854Z,101081.41
2022-11-04T00:34:00.022Z,101074.38
2022-11-04T00:36:30.747Z,101062.97
2022-11-04T00:39:00.259Z,101073.63
2022-11-04T00:41:29.195Z,101070.09
2022-11-04T00:44:00.984Z,101067.16
2022-11-04T00:46:32.064Z,101068.03
2022-11-04T00:49:08.449Z,101069.06
2022-11-04T00:51:36.512Z,101066.81
2022-11-04T00:54:04.714Z,101069.28
2022-11-04T00:56:32.638Z,101071.75
2022-11-04T00:59:00.926Z,101073.66
2022-11-04T01:01:29.408Z,101078.47
2022-11-04T01:03:58.352Z,101075.13
2022-11-04T01:06:27.608Z,101077.66
2022-11-04T01:09:04.538Z,101081.16
2022-11-04T01:11:32.628Z,101082.22
2022-11-04T01:14:00.719Z,101071.06
2022-11-04T01:16:29.731Z,101062.00
2022-11-04T01:18:58.675Z,101053.94
2022-11-04T01:21:27.022Z,101046.53
2022-11-04T01:23:54.870Z,101051.53
2022-11-04T01:26:25.205Z,101037.03
2022-11-04T01:28:55.273Z,101032.50
2022-11-04T01:31:28.452Z,101038.34
2022-11-04T01:34:00.851Z,101043.13
2022-11-04T01:36:29.031Z,101045.94
2022-11-04T01:38:57.946Z,101052.00
2022-11-04T01:41:29.447Z,101055.53
2022-11-04T01:44:03.052Z,101056.22
2022-11-04T01:46:44.675Z,101054.53
2022-11-04T01:49:40.664Z,101053.50
2022-11-04T01:52:24.986Z,101048.13
2022-11-04T01:54:55.496Z,101043.78
2022-11-04T01:57:35.325Z,101045.88
2022-11-04T02:00:07.347Z,101040.69
2022-11-04T02:02:58.050Z,101041.56
2022-11-04T02:05:25.659Z,101030.00
2022-11-04T02:07:58.315Z,101026.69
2022-11-04T02:10:29.591Z,101028.78
2022-11-04T02:13:01.466Z,101024.03
2022-11-04T02:15:44.453Z,101021.78
2022-11-04T02:18:30.406Z,101027.06
2022-11-04T02:21:10.503Z,101026.66
2022-11-04T02:24:10.730Z,101028.41
2022-11-04T02:27:15.579Z,101027.19
2022-11-04T02:30:15.009Z,101024.09
2022-11-04T02:33:00.774Z,101030.91
2022-11-04T02:35:40.313Z,101031.31
2022-11-04T02:38:31.433Z,101038.78
2022-11-04T02:41:14.630Z,101036.72
2022-11-04T02:44:19.667Z,101033.66
2022-11-04T02:47:11.828Z,101035.78
2022-11-04T02:50:02.912Z,101038.03
2022-11-04T02:53:11.804Z,101027.75
2022-11-04T02:55:47.673Z,101021.97
2022-11-04T02:58:39.087Z,101004.22
2022-11-04T03:01:11.252Z,101006.28
2022-11-04T03:03:49.301Z,100999.88
2022-11-04T03:06:22.640Z,101000.94
2022-11-04T03:08:53.217Z,100999.72
2022-11-04T03:11:24.754Z,101007.34
2022-11-04T03:14:13.128Z,101008.19
2022-11-04T03:16:47.855Z,101003.66
2022-11-04T03:19:43.869Z,101019.34
2022-11-04T03:22:23.473Z,101019.53
2022-11-04T03:24:54.045Z,101019.75
2022-11-04T03:27:26.303Z,101024.28
2022-11-04T03:30:06.503Z,101027.81
2022-11-04T03:32:55.293Z,101036.47
2022-11-04T03:35:24.560Z,101036.47
2022-11-04T03:37:53.149Z,101041.00
2022-11-04T03:40:25.788Z,101038.53
2022-11-04T03:43:10.682Z,101032.97
2022-11-04T03:45:39.906Z,101027.59
2022-11-04T03:48:08.938Z,101024.47
2022-11-04T03:50:49.025Z,101031.13
2022-11-04T03:53:23.924Z,101019.53
2022-11-04T03:56:10.535Z,101022.44
2022-11-04T03:59:05.159Z,101022.66
2022-11-04T04:01:49.587Z,101026.56
2022-11-04T04:04:22.004Z,101032.16
2022-11-04T04:06:55.287Z,101029.03
2022-11-04T04:09:39.285Z,101030.69
2022-11-04T04:12:13.914Z,101032.34
2022-11-04T04:14:47.761Z,101036.47
2022-11-04T04:17:24.799Z,101040.41
2022-11-04T04:20:16.537Z,101045.38
2022-11-04T04:22:50.940Z,101041.63
2022-11-04T04:25:41.666Z,101043.50
2022-11-04T04:28:11.998Z,101047.22
2022-11-04T04:30:43.060Z,101048.66
2022-11-04T04:33:21.655Z,101050.28
2022-11-04T04:35:57.323Z,101047.41
2022-11-04T04:38:47.843Z,101043.88
2022-11-04T04:41:37.921Z,101042.38
2022-11-04T04:44:37.906Z,101044.59
2022-11-04T04:47:07.550Z,101040.69
2022-11-04T04:49:35.850Z,101042.34
2022-11-04T04:52:08.181Z,101051.41
2022-11-04T04:54:35.991Z,101058.22
2022-11-04T04:57:04.620Z,101067.72
2022-11-04T04:59:32.851Z,101060.50
2022-11-04T05:02:01.258Z,101054.09
2022-11-04T05:04:29.152Z,101064.41
2022-11-04T05:06:57.436Z,101067.69
2022-11-04T05:09:26.759Z,101059.66
2022-11-04T05:11:55.086Z,101062.13
2022-11-04T05:14:23.248Z,101067.84
2022-11-04T05:16:50.797Z,101061.00
2022-11-04T05:19:18.903Z,101060.38
2022-11-04T05:21:46.870Z,101060.81
2022-11-04T05:24:14.859Z,101052.16
2022-11-04T05:26:42.915Z,101053.78
2022-11-04T05:29:10.992Z,101056.44
2022-11-04T05:31:39.555Z,101058.34
2022-11-04T05:34:07.374Z,101058.31
2022-11-04T05:36:35.482Z,101055.75
2022-11-04T05:39:04.380Z,101053.06
2022-11-04T05:41:32.795Z,101052.31
2022-11-04T05:44:03.197Z,101061.09
2022-11-04T05:46:31.803Z,101052.88
2022-11-04T05:48:59.434Z,101062.78
2022-11-04T05:51:28.855Z,101059.47
2022-11-04T05:53:56.611Z,101062.78
2022-11-04T05:56:24.905Z,101065.00
2022-11-04T05:58:56.667Z,101069.91
2022-11-04T06:01:29.324Z,101065.16
2022-11-04T06:03:58.526Z,101065.38
2022-11-04T06:06:29.358Z,101065.91
2022-11-04T06:08:57.773Z,101065.16
2022-11-04T06:11:27.377Z,101079.50
2022-11-04T06:13:57.504Z,101076.97
2022-11-04T06:16:26.472Z,101072.44
2022-11-04T06:18:54.435Z,101070.22
2022-11-04T06:21:31.934Z,101073.53
2022-11-04T06:24:01.455Z,101071.88
2022-11-04T06:26:31.804Z,101073.28
2022-11-04T06:29:00.154Z,101073.28
2022-11-04T06:31:28.036Z,101075.56
2022-11-04T06:33:55.807Z,101072.75
2022-11-04T06:36:23.799Z,101076.28
2022-11-04T06:38:52.220Z,101083.75
2022-11-04T06:41:20.375Z,101087.53
2022-11-04T06:43:48.179Z,101095.41
2022-11-04T06:46:35.127Z,101105.31
2022-11-04T06:49:04.359Z,101114.97
2022-11-04T06:51:33.409Z,101111.81
2022-11-04T06:54:02.006Z,101117.44
2022-11-04T06:56:30.170Z,101124.09
2022-11-04T06:58:58.836Z,101134.47
2022-11-04T07:01:29.833Z,101129.63
2022-11-04T07:04:00.290Z,101127.28
2022-11-04T07:06:29.786Z,101130.00
2022-11-04T07:09:02.694Z,101123.59
2022-11-04T07:11:32.485Z,101120.53
2022-11-04T07:14:09.111Z,101130.66
2022-11-04T07:16:42.301Z,101130.69
2022-11-04T07:19:10.202Z,101120.56
2022-11-04T07:21:37.916Z,101116.00
2022-11-04T07:24:06.244Z,101112.53
2022-11-04T07:26:33.868Z,101103.47
2022-11-04T07:29:01.599Z,101107.59
2022-11-04T07:31:38.274Z,101104.94
2022-11-04T07:34:06.554Z,101098.94
2022-11-04T07:36:38.426Z,101098.59
2022-11-04T07:39:07.714Z,101093.56
2022-11-04T07:41:35.309Z,101090.97
2022-11-04T07:44:05.926Z,101087.41
2022-11-04T07:46:33.975Z,101079.03
2022-11-04T07:49:02.268Z,101060.13
2022-11-04T07:51:32.763Z,101044.03
2022-11-04T07:54:01.566Z,101057.47
2022-11-04T07:56:29.192Z,101060.78
2022-11-04T07:58:57.102Z,101054.75
2022-11-04T08:01:25.464Z,101062.03
2022-11-04T08:03:53.860Z,101054.00
2022-11-04T08:06:22.610Z,101053.00
2022-11-04T08:08:54.324Z,101048.84
2022-11-04T08:11:28.717Z,101062.28
2022-11-04T08:13:57.164Z,101060.59
2022-11-04T08:16:28.809Z,101059.59
2022-11-04T08:19:02.885Z,101052.56
2022-11-04T08:21:32.411Z,101054.38
2022-11-04T08:24:00.199Z,101069.88
2022-11-04T08:26:28.155Z,101065.53
2022-11-04T08:28:56.952Z,101077.91
2022-11-04T08:31:30.379Z,101074.25
2022-11-04T08:33:58.122Z,101063.66
2022-11-04T08:36:28.777Z,101078.75
2022-11-04T08:39:24.202Z,101087.06
2022-11-04T08:41:53.798Z,101076.50
2022-11-04T08:44:21.585Z,101082.28
2022-11-04T08:46:49.421Z,101087.88
2022-11-04T08:49:20.983Z,101084.34
2022-11-04T08:51:58.429Z,101079.38
2022-11-04T08:54:38.216Z,101085.97
2022-11-04T08:57:06.581Z,101075.97
2022-11-04T08:59:43.319Z,101069.94
2022-11-04T09:02:18.624Z,101063.41
2022-11-04T09:04:50.919Z,101067.72
2022-11-04T09:07:19.099Z,101042.28
2022-11-04T09:09:49.674Z,101043.31
2022-11-04T09:12:17.243Z,101041.22
2022-11-04T09:14:45.293Z,101035.94
2022-11-04T09:17:13.955Z,101029.91
2022-11-04T09:19:42.016Z,101029.00
2022-11-04T09:22:10.222Z,101037.69
2022-11-04T09:24:38.317Z,101038.66
2022-11-04T09:27:07.509Z,101039.75
2022-11-04T09:29:36.927Z,101041.69
2022-11-04T09:32:05.303Z,101037.31
2022-11-04T09:34:33.263Z,101048.16
2022-11-04T09:37:01.346Z,101036.25
2022-11-04T09:39:29.202Z,101027.31
2022-11-04T09:42:02.592Z,101038.38
2022-11-04T09:45:14.972Z,101028.88
2022-11-04T09:47:34.995Z,101026.94
2022-11-04T09:50:04.402Z,101016.69
2022-11-04T09:52:39.707Z,101018.56
2022-11-04T09:55:17.454Z,101027.94
2022-11-04T09:57:55.399Z,101020.75
2022-11-04T10:00:23.878Z,101028.28
2022-11-04T10:03:03.410Z,101002.53
2022-11-04T10:05:54.275Z,101002.53
2022-11-04T10:08:43.872Z,100984.78
2022-11-04T10:11:39.061Z,100992.97
2022-11-04T10:14:14.005Z,100989.56
2022-11-04T10:16:51.027Z,100989.16
2022-11-04T10:19:37.406Z,100988.50
2022-11-04T10:22:33.384Z,100987.06
2022-11-04T10:25:23.630Z,100986.75
2022-11-04T10:27:53.122Z,100977.97
2022-11-04T10:30:27.115Z,100973.59
2022-11-04T10:33:17.394Z,100980.13
2022-11-04T10:35:48.088Z,100984.97
2022-11-04T10:38:19.506Z,100986.06
2022-11-04T10:40:59.652Z,100987.91
2022-11-04T10:43:38.563Z,100991.09
2022-11-04T10:46:37.168Z,101004.63
2022-11-04T10:49:37.554Z,101009.28
2022-11-04T10:52:09.420Z,101001.06
2022-11-04T10:54:55.454Z,101009.34
2022-11-04T10:57:26.185Z,101004.25
2022-11-04T10:59:59.047Z,101001.19
2022-11-04T11:02:47.979Z,100988.75
2022-11-04T11:05:18.152Z,100973.69
2022-11-04T11:07:54.449Z,100968.38
2022-11-04T11:10:23.587Z,100964.59
2022-11-04T11:12:57.553Z,100953.72
2022-11-04T11:15:25.711Z,100965.00
2022-11-04T11:18:08.709Z,100962.88
2022-11-04T11:20:38.259Z,100951.72
2022-11-04T11:23:10.383Z,100948.16
2022-11-04T11:25:45.502Z,100947.75
2022-11-04T11:28:25.421Z,100930.25
2022-11-04T11:31:04.350Z,100943.41
2022-11-04T11:33:34.919Z,100935.28
2022-11-04T11:36:13.352Z,100944.31
2022-11-04T11:38:55.476Z,100940.81
2022-11-04T11:41:29.089Z,100927.28
2022-11-04T11:43:59.008Z,100925.63
2022-11-04T11:46:30.168Z,100915.16
2022-11-04T11:49:01.647Z,100922.03
2022-11-04T11:51:38.399Z,100918.75
2022-11-04T11:54:27.656Z,100937.38
2022-11-04T11:57:13.838Z,100929.66
2022-11-04T12:02:44.793Z,100948.44
2022-11-04T12:11:23.097Z,100942.78
2022-11-04T12:13:57.362Z,100940.22
2022-11-04T12:16:58.988Z,100931.88
2022-11-04T12:20:15.046Z,100945.50
2022-11-04T12:23:21.988Z,100949.88
2022-11-04T12:26:21.687Z,100937.38
2022-11-04T12:29:13.310Z,100927.84
2022-11-04T12:32:20.450Z,100935.72
2022-11-04T12:35:37.675Z,100942.66
2022-11-04T12:38:19.431Z,100933.59
2022-11-04T12:41:37.548Z,100933.72
2022-11-04T12:44:13.787Z,100937.94
2022-11-04T12:47:08.276Z,100932.69
2022-11-04T12:50:09.013Z,100918.25
2022-11-04T12:52:55.064Z,100908.97
2022-11-04T12:55:32.447Z,100921.41
2022-11-04T12:58:20.600Z,100925.63
2022-11-04T13:00:59.271Z,100925.72
2022-11-04T13:03:41.562Z,100918.47
2022-11-04T13:06:16.905Z,100916.13
2022-11-04T13:08:53.477Z,100917.75
2022-11-04T13:11:29.909Z,100928.09
2022-11-04T13:14:02.123Z,100918.09
2022-11-04T13:16:34.995Z,100923.41
2022-11-04T13:19:18.618Z,100920.47
2022-11-04T13:21:50.016Z,100916.03
2022-11-04T13:24:48.084Z,100912.16
2022-11-04T13:27:39.122Z,100906.59
2022-11-04T13:30:07.481Z,100904.53
2022-11-04T13:33:12.945Z,100893.47
2022-11-04T13:36:00.496Z,100898.75
2022-11-04T13:39:03.757Z,100902.63
2022-11-04T13:42:08.476Z,100901.78
2022-11-04T13:44:40.864Z,100885.47
2022-11-04T13:47:21.770Z,100889.66
2022-11-04T13:49:58.431Z,100893.38
2022-11-04T13:52:31.933Z,100893.97
2022-11-04T13:55:21.631Z,100908.72
2022-11-04T13:58:06.445Z,100906.00
2022-11-04T14:00:40.669Z,100902.09
2022-11-04T14:03:26.715Z,100913.88
2022-11-04T14:06:00.000Z,100912.00
2022-11-04T14:08:27.886Z,100917.97
2022-11-04T14:10:55.562Z,100902.63
2022-11-04T14:13:32.915Z,100915.53
2022-11-04T14:16:05.775Z,100914.44
2022-11-04T14:18:40.808Z,100897.09
2022-11-04T14:21:18.099Z,100894.84
2022-11-04T14:23:53.743Z,100890.63
2022-11-04T14:26:28.427Z,100904.16
2022-11-04T14:29:26.440Z,100895.09
2022-11-04T14:31:57.381Z,100889.22
2022-11-04T14:34:34.205Z,100880.50
2022-11-04T14:37:09.161Z,100892.34
2022-11-04T14:39:41.066Z,100900.06
2022-11-04T14:42:13.016Z,100899.75
2022-11-04T14:44:50.198Z,100899.88
2022-11-04T14:47:33.736Z,100891.91
2022-11-04T14:50:09.009Z,100906.16
2022-11-04T14:52:53.330Z,100890.03
2022-11-04T14:55:25.946Z,100900.75
2022-11-04T14:57:56.528Z,100903.09
2022-11-04T15:00:35.970Z,100902.72
2022-11-04T15:06:12.944Z,100906.03
2022-11-04T15:08:49.758Z,100906.00
2022-11-04T15:11:39.438Z,100903.53
2022-11-04T15:14:25.339Z,100915.88
2022-11-04T15:16:59.801Z,100917.53
2022-11-04T15:19:35.944Z,100927.50
2022-11-04T15:22:07.037Z,100921.06
2022-11-04T15:24:36.877Z,100935.16
2022-11-04T15:27:07.809Z,100934.22
2022-11-04T15:29:40.188Z,100951.78
2022-11-04T15:32:26.046Z,100931.50
2022-11-04T15:34:55.974Z,100945.00
2022-11-04T15:37:26.136Z,100957.91
2022-11-04T15:40:02.701Z,100950.63
2022-11-04T15:42:46.003Z,100954.28
2022-11-04T15:45:23.606Z,100944.06
2022-11-04T15:48:27.649Z,100955.78
2022-11-04T15:51:28.007Z,100951.28
2022-11-04T15:54:16.818Z,100951.53
2022-11-04T15:56:55.749Z,100947.66
2022-11-04T15:59:28.866Z,100947.41
2022-11-04T16:01:56.830Z,100949.53
2022-11-04T16:04:28.476Z,100956.13
2022-11-04T16:07:10.323Z,100966.06
2022-11-04T16:09:54.769Z,100964.75
2022-11-04T16:12:37.782Z,100958.25
2022-11-04T16:15:05.582Z,100948.13
2022-11-04T16:17:34.460Z,100969.31
2022-11-04T16:20:08.686Z,100965.44
2022-11-04T16:22:39.834Z,100961.06
2022-11-04T16:25:19.074Z,100963.25
2022-11-04T16:27:46.896Z,100969.53
2022-11-04T16:30:18.766Z,100983.69
2022-11-04T16:32:51.824Z,100997.69
2022-11-04T16:35:23.330Z,100999.53
2022-11-04T16:37:59.557Z,101016.66
2022-11-04T16:40:27.936Z,101009.13
2022-11-04T16:42:58.348Z,101007.75
2022-11-04T16:45:33.887Z,101011.72
2022-11-04T16:48:09.117Z,101010.56
2022-11-04T16:50:39.747Z,101014.53
2022-11-04T16:53:08.196Z,101013.50
2022-11-04T16:55:45.679Z,101022.66
2022-11-04T16:58:18.368Z,101020.66
2022-11-04T17:00:46.664Z,101034.78
2022-11-04T17:03:25.693Z,101034.56
2022-11-04T17:06:01.416Z,101034.78
2022-11-04T17:08:31.034Z,101042.00
2022-11-04T17:11:03.197Z,101050.63
2022-11-04T17:13:37.041Z,101046.25
2022-11-04T17:16:11.355Z,101056.38
2022-11-04T17:18:41.617Z,101062.38
2022-11-04T17:21:14.020Z,101066.72
2022-11-04T17:23:42.385Z,101066.06
2022-11-04T17:26:12.878Z,101064.13
2022-11-04T17:28:40.485Z,101063.59
2022-11-04T17:31:19.039Z,101071.28
2022-11-04T17:33:47.288Z,101071.91
2022-11-04T17:36:20.581Z,101079.28
2022-11-04T17:38:49.032Z,101078.28
2022-11-04T17:41:35.948Z,101077.09
2022-11-04T17:44:05.813Z,101080.03
2022-11-04T17:46:39.604Z,101096.78
2022-11-04T17:49:17.727Z,101092.22
2022-11-04T17:51:50.027Z,101091.41
2022-11-04T17:54:22.965Z,101098.84
2022-11-04T17:56:51.241Z,101100.50
2022-11-04T17:59:22.213Z,101105.53
2022-11-04T18:01:51.610Z,101112.78
2022-11-04T18:04:24.258Z,101110.97
2022-11-04T18:06:52.069Z,101105.38
2022-11-04T18:09:20.034Z,101115.69
2022-11-04T18:12:07.016Z,101105.78
2022-11-04T18:14:38.422Z,101112.59
2022-11-04T18:17:11.090Z,101116.13
2022-11-04T18:19:39.861Z,101114.28
2022-11-04T18:22:08.911Z,101111.66
2022-11-04T18:24:36.976Z,101108.09
2022-11-04T18:27:04.729Z,101104.63
2022-11-04T18:29:32.571Z,101125.09
2022-11-04T18:32:01.619Z,101107.53
2022-11-04T18:34:29.089Z,101117.63
2022-11-04T18:37:06.259Z,101116.38
2022-11-04T18:39:42.916Z,101115.53
2022-11-04T18:42:14.046Z,101118.22
2022-11-04T18:44:45.566Z,101122.00
2022-11-04T18:47:14.207Z,101129.25
2022-11-04T18:49:47.912Z,101138.19
2022-11-04T18:52:15.917Z,101135.03
2022-11-04T18:54:44.829Z,101135.88
2022-11-04T18:57:13.351Z,101134.88
2022-11-04T18:59:41.273Z,101136.94
2022-11-04T19:02:22.097Z,101136.97
2022-11-04T19:04:51.205Z,101146.69
2022-11-04T19:07:28.572Z,101157.66
2022-11-04T19:09:56.792Z,101169.41
2022-11-04T19:12:42.796Z,101161.34
2022-11-04T19:15:11.072Z,101169.41
2022-11-04T19:17:39.347Z,101182.44
2022-11-04T19:20:30.076Z,101175.81
2022-11-04T19:22:59.855Z,101190.28
2022-11-04T19:25:27.898Z,101184.94
2022-11-04T19:28:31.451Z,101188.22
2022-11-04T19:31:01.191Z,101194.25
2022-11-04T19:33:30.997Z,101192.16
2022-11-04T19:36:00.581Z,101197.94
2022-11-04T19:38:29.535Z,101197.94
2022-11-04T19:41:08.240Z,101195.25
2022-11-04T19:43:37.188Z,101201.44
2022-11-04T19:46:05.598Z,101207.84
2022-11-04T19:48:37.640Z,101208.25
2022-11-04T19:51:13.563Z,101213.81
2022-11-04T19:53:52.007Z,101212.34
2022-11-04T19:56:24.126Z,101227.22
2022-11-04T19:58:52.272Z,101229.03
2022-11-04T20:01:25.112Z,101222.84
2022-11-04T20:03:53.818Z,101225.97
2022-11-04T20:06:38.575Z,101234.00
2022-11-04T20:09:16.716Z,101230.09
2022-11-04T20:12:04.518Z,101237.53
2022-11-04T20:14:35.471Z,101246.16
2022-11-04T20:17:08.883Z,101251.16
2022-11-04T20:19:37.280Z,101254.00
2022-11-04T20:22:05.365Z,101258.91
2022-11-04T20:24:33.914Z,101260.97
2022-11-04T20:27:15.713Z,101257.06
2022-11-04T20:29:50.955Z,101261.38
2022-11-04T20:32:19.147Z,101260.16
2022-11-04T20:34:51.382Z,101259.69
2022-11-04T20:37:21.583Z,101262.75
2022-11-04T20:39:52.190Z,101261.53
2022-11-04T20:42:19.979Z,101279.22
2022-11-04T20:44:51.040Z,101276.94
2022-11-04T20:47:25.323Z,101280.34
2022-11-04T20:49:53.334Z,101288.75
2022-11-04T20:52:21.155Z,101286.41
2022-11-04T20:54:52.035Z,101300.09
2022-11-04T20:57:22.318Z,101302.34
2022-11-04T20:59:51.543Z,101303.38
2022-11-04T21:02:25.140Z,101299.59
2022-11-04T21:04:53.593Z,101316.34
2022-11-04T21:07:21.167Z,101307.84
2022-11-04T21:09:51.422Z,101304.16
2022-11-04T21:12:19.698Z,101312.16
2022-11-04T21:14:47.507Z,101320.66
2022-11-04T21:17:21.830Z,101313.72
2022-11-04T21:19:57.197Z,101326.06
2022-11-04T21:22:24.997Z,101329.66
2022-11-04T21:24:53.112Z,101339.41
2022-11-04T21:27:21.002Z,101333.25
2022-11-04T21:29:49.307Z,101337.91
2022-11-04T21:32:17.711Z,101339.66
2022-11-04T21:34:47.466Z,101331.41
2022-11-04T21:37:15.381Z,101339.00
2022-11-04T21:39:43.400Z,101348.56
2022-11-04T21:42:11.546Z,101343.97
2022-11-04T21:44:39.495Z,101344.94
2022-11-04T21:47:07.941Z,101354.34
2022-11-04T21:49:35.810Z,101338.16
2022-11-04T21:52:05.103Z,101341.50
2022-11-04T21:54:33.276Z,101340.13
2022-11-04T21:57:01.122Z,101345.19
2022-11-04T21:59:29.160Z,101346.28
2022-11-04T22:01:57.375Z,101362.72
2022-11-04T22:04:25.336Z,101362.03
2022-11-04T22:07:01.889Z,101359.34
2022-11-04T22:09:31.948Z,101362.88
2022-11-04T22:12:00.023Z,101361.25
2022-11-04T22:14:33.383Z,101356.47
2022-11-04T22:17:01.988Z,101351.09
2022-11-04T22:19:29.354Z,101362.66
2022-11-04T22:22:00.709Z,101359.34
2022-11-04T22:24:28.609Z,101345.00
2022-11-04T22:26:57.364Z,101350.69
2022-11-04T22:29:24.636Z,101338.16
2022-11-04T22:31:52.057Z,101328.03
2022-11-04T22:34:22.944Z,101334.94
2022-11-04T22:36:50.787Z,101328.59
2022-11-04T22:39:18.457Z,101322.69
2022-11-04T22:41:46.691Z,101324.91
2022-11-04T22:44:14.302Z,101327.78
2022-11-04T22:46:44.007Z,101328.25
2022-11-04T22:49:11.985Z,101322.69
2022-11-04T22:51:39.205Z,101316.97
2022-11-04T22:54:08.844Z,101315.69
2022-11-04T22:56:40.162Z,101317.78
2022-11-04T22:59:08.100Z,101313.38
2022-11-04T23:01:35.550Z,101311.09
2022-11-04T23:04:06.348Z,101321.97
2022-11-04T23:06:34.079Z,101318.50
2022-11-04T23:09:02.494Z,101317.63
2022-11-04T23:11:49.501Z,101323.38
2022-11-04T23:14:54.842Z,101324.34
2022-11-04T23:17:42.513Z,101330.00
2022-11-04T23:20:14.032Z,101328.69
2022-11-04T23:23:00.402Z,101326.47
2022-11-04T23:25:28.227Z,101335.69
2022-11-04T23:28:16.498Z,101339.03
2022-11-04T23:30:47.418Z,101333.13
2022-11-04T23:33:15.984Z,101337.75
2022-11-04T23:36:07.520Z,101336.25
2022-11-04T23:38:38.133Z,101340.78
2022-11-04T23:41:26.241Z,101333.06
2022-11-04T23:43:53.705Z,101336.75
2022-11-04T23:46:43.467Z,101335.06
2022-11-04T23:49:35.614Z,101331.47
2022-11-04T23:52:21.665Z,101339.78
2022-11-04T23:55:07.434Z,101333.50
2022-11-04T23:57:58.075Z,101341.09
